Terminal Aerodrome Forecast
Issued by NWS Tulsa, OK

Home | Current Version | Previous Version | Text Only | Print | Product List | Glossary On
Versions: 1 2 3 4 5 6 7 8 9 10 11 12 13 14 15 16
000
FTUS44 KTSA 191100
TAFTUL
TAF
KTUL 191140Z 1912/2012 13007KT 5SM BR OVC005
     FM191600 16010KT P6SM SCT250
     FM200100 15005KT P6SM SCT150=

USA.gov is the U.S. government's official web portal to all federal, state and local government web resources and services.